Time;durP1;ratioP1;P1;durP2;ratioP2;P2;SDS_P1;SDS_P2;PMS_P1;PMS_P2;Temp;Humidity;BMP_temperature;BMP_pressure;BME280_temperature;BME280_humidity;BME280_pressure;Samples;Min_cycle;Max_cycle;Signal;HPM_P1;HPM_P2
2021/06/08 11:36:31;;;;;;;6.95;2.30;;;;;;;27.50;42.26;100511.19;1722274;81;21204;-61
2021/06/08 11:39:24;;;;;;;6.62;2.55;;;;;;;27.39;42.17;100506.38;1720781;80;21117;-63
2021/06/08 11:42:00;;;;;;;6.20;2.20;;;;;;;27.34;42.21;100512.91;1723291;81;20951;-60
2021/06/08 11:44:26;;;;;;;7.90;2.55;;;;;;;27.27;41.75;100508.60;1724099;80;21671;-59
2021/06/08 11:47:04;;;;;;;5.83;2.45;;;;;;;27.28;41.91;100503.94;1722257;80;21117;-59
2021/06/08 11:49:31;;;;;;;4.97;2.27;;;;;;;27.35;42.08;100498.13;1722503;80;21494;-61
2021/06/08 11:52:08;;;;;;;5.90;2.65;;;;;;;27.37;42.49;100491.05;1721693;81;21034;-60
2021/06/08 11:54:39;;;;;;;7.03;3.00;;;;;;;27.39;42.85;100488.48;1726609;81;21523;-62
2021/06/08 11:57:14;;;;;;;7.75;2.35;;;;;;;27.44;42.91;100487.98;1726651;81;21370;-59
2021/06/08 11:59:54;;;;;;;6.40;2.45;;;;;;;27.55;42.30;100486.81;1722705;81;21084;-60
2021/06/08 12:02:46;;;;;;;9.05;2.47;;;;;;;27.66;41.84;100486.98;1705561;82;44591;-59
2021/06/08 12:05:21;;;;;;;7.12;3.27;;;;;;;27.76;41.58;100478.02;1692430;82;21435;-60
2021/06/08 12:08:01;;;;;;;5.72;2.50;;;;;;;27.83;41.88;100484.53;1695346;82;21624;-60
2021/06/08 12:10:42;;;;;;;4.80;2.30;;;;;;;27.82;41.84;100477.84;1696720;82;21075;-59
2021/06/08 12:13:10;;;;;;;5.12;2.25;;;;;;;27.80;41.96;100474.41;1697924;82;21427;-60
2021/06/08 12:15:39;;;;;;;8.10;2.10;;;;;;;27.83;41.44;100475.43;1695504;83;21625;-59
2021/06/08 12:18:24;;;;;;;4.20;2.20;;;;;;;27.89;41.07;100470.59;1696669;82;21370;-60
2021/06/08 12:20:51;;;;;;;4.78;2.42;;;;;;;27.95;41.48;100465.75;1694946;83;20958;-59
2021/06/08 12:23:29;;;;;;;2.83;2.25;;;;;;;27.94;41.38;100465.95;1695766;83;22134;-60
2021/06/08 12:26:12;;;;;;;5.72;2.15;;;;;;;27.91;41.29;100466.30;1696172;82;20926;-59
2021/06/08 12:29:02;;;;;;;5.90;2.33;;;;;;;27.85;41.41;100467.85;1693864;82;21133;-59
2021/06/08 12:31:29;;;;;;;5.05;2.30;;;;;;;27.85;41.38;100458.20;1694491;82;21929;-60
2021/06/08 12:33:57;;;;;;;3.67;2.55;;;;;;;27.89;41.43;100460.95;1660022;84;21011;-59
2021/06/08 12:36:24;;;;;;;8.28;2.77;;;;;;;27.91;40.85;100461.63;1638809;85;21484;-60
2021/06/08 12:38:54;;;;;;;5.50;2.27;;;;;;;27.88;40.93;100457.85;1638026;85;21660;-62
2021/06/08 12:41:25;;;;;;;14.20;2.00;;;;;;;27.80;40.74;100463.39;1633849;85;21085;-61
2021/06/08 12:43:55;;;;;;;6.30;2.37;;;;;;;27.70;40.39;100465.79;1635543;87;21097;-59
2021/06/08 12:46:29;;;;;;;6.42;2.47;;;;;;;27.62;41.13;100457.55;1657189;84;21089;-59
2021/06/08 12:49:12;;;;;;;8.43;2.40;;;;;;;27.59;41.87;100451.02;1648776;85;21107;-60
2021/06/08 12:51:53;;;;;;;9.03;2.70;;;;;;;27.60;41.94;100454.11;1684831;83;21581;-62
2021/06/08 12:54:42;;;;;;;8.30;2.45;;;;;;;27.59;41.33;100444.13;1690189;83;21036;-63
2021/06/08 12:57:24;;;;;;;5.05;2.33;;;;;;;27.57;41.45;100452.55;1688528;83;21509;-60
2021/06/08 13:00:11;;;;;;;9.40;2.33;;;;;;;27.57;41.15;100444.83;1688397;83;21067;-61
2021/06/08 13:02:40;;;;;;;6.97;2.30;;;;;;;27.57;40.97;100437.94;1691439;82;25376;-62
2021/06/08 13:05:08;;;;;;;6.15;2.10;;;;;;;27.61;40.65;100450.32;1694660;83;21485;-62
2021/06/08 13:07:39;;;;;;;6.33;2.35;;;;;;;27.67;40.74;100440.52;1687497;82;21054;-61
2021/06/08 13:10:08;;;;;;;6.70;2.30;;;;;;;27.71;41.14;100430.87;1668684;83;21028;-62
2021/06/08 13:12:43;;;;;;;5.40;2.02;;;;;;;27.73;41.29;100437.06;1690483;83;20968;-60
2021/06/08 13:15:15;;;;;;;6.10;2.60;;;;;;;27.76;40.29;100435.86;1661950;84;21066;-59
2021/06/08 13:17:42;;;;;;;17.05;3.12;;;;;;;27.73;39.01;100438.44;1691084;83;20996;-63
2021/06/08 13:20:27;;;;;;;6.62;2.00;;;;;;;27.70;39.40;100429.99;1638041;85;21458;-62
2021/06/08 13:22:53;;;;;;;9.25;2.30;;;;;;;27.72;39.25;100430.67;1689066;83;21043;-64
2021/06/08 13:25:21;;;;;;;13.20;2.45;;;;;;;27.77;39.33;100435.67;1690860;83;21052;-62
2021/06/08 13:27:48;;;;;;;18.87;2.42;;;;;;;27.83;39.96;100429.45;1690304;83;21149;-61
2021/06/08 13:30:21;;;;;;;7.25;2.22;;;;;;;27.94;39.99;100427.37;1658089;84;21501;-65
2021/06/08 13:33:04;;;;;;;11.10;2.27;;;;;;;28.07;39.88;100435.09;1687558;83;21066;-60
2021/06/08 13:35:34;;;;;;;9.78;2.22;;;;;;;28.21;39.79;100442.66;1629572;86;21021;-61
2021/06/08 13:38:05;;;;;;;8.38;2.40;;;;;;;28.33;39.16;100432.61;1666747;84;21670;-63
2021/06/08 13:40:35;;;;;;;7.60;2.05;;;;;;;28.37;38.94;100437.59;1695283;82;21078;-68
2021/06/08 13:43:14;;;;;;;6.30;2.80;;;;;;;28.40;38.86;100438.61;1704030;82;21172;-67
2021/06/08 13:45:51;;;;;;;11.12;2.77;;;;;;;28.38;39.37;100458.61;1703010;82;21462;-66
2021/06/08 13:48:37;;;;;;;7.12;3.00;;;;;;;28.10;42.11;100454.02;1663472;84;21553;-66
2021/06/08 13:51:13;;;;;;;9.75;2.80;;;;;;;27.68;44.10;100482.16;1645926;85;20985;-61
2021/06/08 13:53:44;;;;;;;10.03;2.98;;;;;;;27.03;46.65;100501.14;1705065;82;21955;-62
2021/06/08 13:56:23;;;;;;;10.40;2.80;;;;;;;26.30;49.91;100482.28;1701211;82;21101;-63
2021/06/08 14:01:37;;;;;;;6.85;2.12;;;;;;;25.14;48.17;100463.52;1703701;82;21765;-60
2021/06/08 14:04:09;;;;;;;7.90;2.25;;;;;;;24.79;48.18;100454.23;1701996;82;21018;-60
2021/06/08 14:06:38;;;;;;;5.17;1.90;;;;;;;24.70;48.40;100449.13;1699630;82;21847;-60
2021/06/08 14:09:09;;;;;;;7.83;1.90;;;;;;;24.73;47.87;100441.13;1701221;82;21021;-60
2021/06/08 14:11:48;;;;;;;7.22;2.55;;;;;;;24.81;47.81;100443.13;1707215;82;21103;-61
2021/06/08 14:14:30;;;;;;;6.60;2.35;;;;;;;24.97;48.23;100439.69;1697877;82;20928;-61
2021/06/08 14:17:18;;;;;;;3.72;2.30;;;;;;;25.12;48.51;100442.75;1695914;82;21026;-62
2021/06/08 14:19:47;;;;;;;4.28;2.45;;;;;;;25.20;48.19;100433.73;1705096;82;21813;-60
2021/06/08 14:22:14;;;;;;;7.50;3.30;;;;;;;25.26;47.98;100433.09;1700532;82;20929;-61
2021/06/08 14:24:40;;;;;;;9.43;3.70;;;;;;;25.30;47.80;100438.12;1696249;82;20941;-61
2021/06/08 14:27:16;;;;;;;9.70;3.10;;;;;;;25.37;47.39;100432.87;1679534;83;21519;-62
2021/06/08 14:29:42;;;;;;;8.53;2.45;;;;;;;25.40;47.48;100436.66;1695646;82;21009;-62
2021/06/08 14:32:09;;;;;;;8.80;2.65;;;;;;;25.41;48.32;100435.64;1703379;82;21928;-65
2021/06/08 14:34:36;;;;;;;6.78;2.72;;;;;;;25.35;49.04;100443.64;1700233;82;21045;-61
2021/06/08 14:37:05;;;;;;;9.85;2.47;;;;;;;25.23;49.03;100447.13;1702876;82;21053;-61
2021/06/08 14:39:33;;;;;;;9.35;2.75;;;;;;;25.05;49.53;100452.10;1696761;82;21036;-62
2021/06/08 14:41:59;;;;;;;11.75;2.50;;;;;;;24.91;49.87;100445.80;1664231;84;21046;-61
2021/06/08 14:44:27;;;;;;;10.05;3.12;;;;;;;24.81;50.86;100448.61;1653510;85;21431;-62
2021/06/08 14:46:55;;;;;;;10.75;2.72;;;;;;;24.69;51.47;100452.05;1643503;85;21066;-60
2021/06/08 14:49:22;;;;;;;12.13;3.25;;;;;;;24.57;52.22;100454.98;1708308;82;21006;-61
2021/06/08 14:51:49;;;;;;;9.20;3.00;;;;;;;24.46;54.07;100457.94;1705246;82;21096;-59
2021/06/08 14:54:16;;;;;;;15.50;3.70;;;;;;;24.29;56.90;100443.14;1709359;82;21476;-60
2021/06/08 14:56:43;;;;;;;9.28;2.80;;;;;;;24.13;57.64;100433.72;1704996;82;21122;-61
2021/06/08 14:59:10;;;;;;;10.72;2.95;;;;;;;24.03;58.06;100440.60;1701039;82;22026;-61
2021/06/08 15:01:38;;;;;;;10.63;2.92;;;;;;;23.90;58.99;100438.66;1704493;82;21045;-61
2021/06/08 15:04:05;;;;;;;6.80;2.77;;;;;;;23.80;59.25;100438.69;1702271;82;20978;-61
2021/06/08 15:06:32;;;;;;;14.98;3.15;;;;;;;23.75;59.88;100439.64;1699697;82;21473;-62
2021/06/08 15:08:58;;;;;;;9.28;3.20;;;;;;;23.71;61.65;100448.64;1697669;82;20978;-61
2021/06/08 15:11:25;;;;;;;19.12;3.50;;;;;;;23.66;63.42;100446.86;1699820;82;21021;-60
2021/06/08 15:13:52;;;;;;;9.08;3.22;;;;;;;23.61;63.06;100444.55;1698465;82;20981;-61
2021/06/08 15:16:19;;;;;;;8.23;2.87;;;;;;;23.55;65.07;100447.88;1700547;83;21160;-61
2021/06/08 15:18:47;;;;;;;7.30;2.90;;;;;;;23.46;63.85;100455.08;1682419;83;21036;-61
2021/06/08 15:21:13;;;;;;;9.18;2.95;;;;;;;23.41;64.73;100461.50;1695833;83;22379;-61
2021/06/08 15:23:40;;;;;;;6.53;3.12;;;;;;;23.33;65.27;100460.00;1697121;82;21021;-62
2021/06/08 15:26:07;;;;;;;12.10;3.33;;;;;;;23.29;65.66;100466.75;1702713;82;21420;-60
2021/06/08 15:28:34;;;;;;;7.37;3.25;;;;;;;23.24;65.71;100464.92;1696006;82;21446;-61
2021/06/08 15:31:03;;;;;;;6.37;3.20;;;;;;;23.21;67.56;100465.22;1700554;82;20997;-60
2021/06/08 15:33:31;;;;;;;5.80;3.20;;;;;;;23.10;67.25;100465.73;1702043;82;21110;-60
2021/06/08 15:36:00;;;;;;;8.40;3.50;;;;;;;22.99;66.63;100467.21;1704289;83;21550;-59
2021/06/08 15:38:26;;;;;;;6.08;3.22;;;;;;;22.91;67.04;100461.08;1704496;82;21032;-60
2021/06/08 15:40:53;;;;;;;10.72;3.83;;;;;;;22.81;68.01;100466.52;1701469;82;21060;-62
2021/06/08 15:43:20;;;;;;;7.47;3.20;;;;;;;22.75;68.87;100465.21;1706608;82;21003;-60
2021/06/08 15:45:47;;;;;;;5.67;3.27;;;;;;;22.70;68.72;100468.03;1706714;83;21085;-60
2021/06/08 15:48:13;;;;;;;7.33;3.45;;;;;;;22.65;68.92;100456.63;1679658;83;21032;-59
2021/06/08 15:50:40;;;;;;;5.65;3.35;;;;;;;22.64;68.83;100459.00;1670745;83;21554;-59
2021/06/08 15:53:06;;;;;;;7.12;3.60;;;;;;;22.65;69.14;100447.06;1665852;83;21064;-59
2021/06/08 15:55:34;;;;;;;9.23;3.40;;;;;;;22.64;69.01;100434.41;1669642;83;21404;-60
2021/06/08 15:58:00;;;;;;;8.18;3.55;;;;;;;22.65;68.77;100438.87;1663901;85;21094;-58
2021/06/08 16:00:27;;;;;;;8.08;3.67;;;;;;;22.66;68.39;100446.06;1710434;82;24172;-59
2021/06/08 16:02:53;;;;;;;8.43;3.83;;;;;;;22.69;68.14;100448.54;1708415;82;21420;-58
2021/06/08 16:05:19;;;;;;;8.43;3.80;;;;;;;22.72;68.44;100448.25;1703288;83;21369;-59
2021/06/08 16:07:46;;;;;;;9.88;4.10;;;;;;;22.72;68.69;100440.06;1705262;82;20955;-59
2021/06/08 16:10:14;;;;;;;7.35;4.17;;;;;;;22.72;68.57;100442.79;1701263;82;22237;-67
2021/06/08 16:12:42;;;;;;;15.63;3.95;;;;;;;22.72;68.82;100456.45;1652154;85;21396;-65
2021/06/08 16:15:11;;;;;;;12.80;4.15;;;;;;;22.72;69.44;100461.92;1650411;85;21887;-63
2021/06/08 16:17:38;;;;;;;8.98;3.65;;;;;;;22.68;70.57;100471.41;1653597;84;21037;-65
2021/06/08 16:20:05;;;;;;;6.62;3.10;;;;;;;22.63;73.14;100483.23;1631813;85;21159;-67
2021/06/08 16:22:32;;;;;;;13.38;2.83;;;;;;;22.49;72.10;100489.45;1658779;84;21100;-59
2021/06/08 16:24:59;;;;;;;5.72;2.95;;;;;;;22.37;72.32;100485.05;1650948;86;20998;-65
2021/06/08 16:27:26;;;;;;;7.12;2.75;;;;;;;22.21;72.25;100493.75;1703976;82;21693;-58
2021/06/08 16:29:53;;;;;;;7.55;2.75;;;;;;;22.08;72.76;100514.45;1701839;83;20988;-59
2021/06/08 16:32:19;;;;;;;8.60;3.12;;;;;;;21.95;73.19;100531.87;1709282;82;21478;-63
2021/06/08 16:34:48;;;;;;;11.83;4.00;;;;;;;21.78;74.39;100542.05;1708270;83;21846;-63
2021/06/08 16:37:15;;;;;;;8.55;3.17;;;;;;;21.44;75.31;100520.70;1699042;83;21271;-63
2021/06/08 16:39:41;;;;;;;6.80;2.60;;;;;;;21.00;74.24;100515.77;1694991;82;20954;-63
2021/06/08 16:42:08;;;;;;;4.47;2.55;;;;;;;20.69;73.86;100515.55;1693728;82;21985;-64
2021/06/08 16:44:36;;;;;;;7.05;3.60;;;;;;;20.49;75.14;100503.06;1698515;82;21625;-64
2021/06/08 16:47:03;;;;;;;8.18;3.25;;;;;;;20.36;75.66;100498.22;1696014;82;21501;-64
2021/06/08 16:49:31;;;;;;;10.35;3.80;;;;;;;20.32;77.77;100505.28;1697934;83;20919;-64
2021/06/08 16:54:27;;;;;;;4.97;3.27;;;;;;;20.20;81.71;100510.33;1695228;82;21532;-64
2021/06/08 16:56:54;;;;;;;10.18;3.65;;;;;;;20.12;80.46;100505.53;1694640;83;21880;-66
2021/06/08 16:59:20;;;;;;;11.85;3.62;;;;;;;20.11;81.55;100501.55;1695960;83;21894;-63
2021/06/08 17:01:50;;;;;;;9.95;3.35;;;;;;;20.09;84.89;100499.45;1695582;82;21052;-65
2021/06/08 17:04:17;;;;;;;11.38;3.27;;;;;;;19.97;85.75;100505.37;1698868;83;20931;-64
2021/06/08 17:06:44;;;;;;;7.00;3.20;;;;;;;19.87;86.08;100498.39;1694556;83;21014;-63
2021/06/08 17:09:13;;;;;;;6.70;3.35;;;;;;;19.81;86.43;100496.16;1691497;82;21108;-63
2021/06/08 17:11:40;;;;;;;6.53;3.00;;;;;;;19.78;86.87;100504.53;1699931;83;21157;-64
2021/06/08 17:14:07;;;;;;;5.72;3.20;;;;;;;19.72;87.04;100495.88;1694303;82;21028;-64
2021/06/08 17:16:37;;;;;;;7.08;2.62;;;;;;;19.68;86.86;100484.87;1698990;82;21000;-63
2021/06/08 17:19:03;;;;;;;7.03;2.50;;;;;;;19.65;87.21;100485.59;1696776;83;20950;-64
2021/06/08 17:21:29;;;;;;;9.03;2.87;;;;;;;19.61;87.06;100480.39;1697875;83;21058;-65
2021/06/08 17:23:56;;;;;;;6.20;2.40;;;;;;;19.59;87.54;100478.80;1701401;83;21113;-65
2021/06/08 17:26:24;;;;;;;4.33;2.50;;;;;;;19.57;88.64;100482.13;1696196;83;21008;-63
2021/06/08 17:28:51;;;;;;;7.08;3.33;;;;;;;19.54;89.07;100478.27;1694051;83;21043;-63
2021/06/08 17:31:17;;;;;;;4.90;2.52;;;;;;;19.50;89.81;100486.29;1689610;83;21066;-63
2021/06/08 17:33:45;;;;;;;5.08;2.50;;;;;;;19.45;90.64;100486.16;1696793;83;21024;-63
2021/06/08 17:36:11;;;;;;;3.80;2.52;;;;;;;19.42;90.73;100487.76;1697188;83;21796;-64
2021/06/08 17:38:38;;;;;;;9.55;2.70;;;;;;;19.42;90.20;100494.55;1704049;83;23198;-64
2021/06/08 17:41:05;;;;;;;4.92;2.67;;;;;;;19.38;90.14;100493.06;1717902;83;21021;-59
2021/06/08 17:43:31;;;;;;;4.58;2.47;;;;;;;19.36;90.23;100485.52;1680376;85;21016;-60
2021/06/08 17:45:58;;;;;;;6.53;2.75;;;;;;;19.35;90.32;100491.94;1665320;84;21048;-60
2021/06/08 17:48:25;;;;;;;5.28;2.40;;;;;;;19.34;90.24;100495.61;1663482;85;21763;-59
2021/06/08 17:50:53;;;;;;;3.55;2.70;;;;;;;19.32;90.05;100502.54;1707993;83;21020;-59
2021/06/08 17:53:20;;;;;;;5.15;2.90;;;;;;;19.33;89.77;100498.84;1710107;83;20933;-59
2021/06/08 17:55:46;;;;;;;4.10;2.60;;;;;;;19.29;89.44;100497.34;1663160;85;22169;-58
2021/06/08 17:58:13;;;;;;;4.17;2.58;;;;;;;19.30;89.05;100500.91;1713668;83;20943;-58
2021/06/08 18:00:39;;;;;;;5.12;2.60;;;;;;;19.28;89.35;100502.41;1711132;82;21181;-58
2021/06/08 18:03:06;;;;;;;4.60;2.60;;;;;;;19.27;89.96;100506.11;1737630;82;35479;-59
2021/06/08 18:05:33;;;;;;;5.50;2.85;;;;;;;19.24;89.80;100510.90;1679893;83;21625;-59
2021/06/08 18:08:01;;;;;;;6.90;3.50;;;;;;;19.22;90.05;100511.51;1738416;82;21015;-59
2021/06/08 18:10:31;;;;;;;9.13;3.10;;;;;;;19.20;90.00;100516.20;1734685;80;20963;-59
2021/06/08 18:12:59;;;;;;;4.85;3.65;;;;;;;19.20;89.34;100521.63;1736300;82;21448;-60
2021/06/08 18:15:25;;;;;;;6.80;3.72;;;;;;;19.21;89.19;100527.44;1736129;82;21665;-60
2021/06/08 18:17:57;;;;;;;6.20;3.77;;;;;;;19.21;88.86;100525.57;1728651;82;21063;-60
2021/06/08 18:20:23;;;;;;;9.58;3.87;;;;;;;19.22;89.26;100535.97;1739448;81;21107;-60
2021/06/08 18:22:50;;;;;;;5.50;3.45;;;;;;;19.24;89.58;100539.44;1733114;82;20992;-60
2021/06/08 18:25:17;;;;;;;5.78;3.70;;;;;;;19.22;90.21;100540.05;1734040;82;21451;-60
2021/06/08 18:27:44;;;;;;;4.22;3.35;;;;;;;19.19;91.23;100530.26;1737342;81;21060;-62
2021/06/08 18:30:15;;;;;;;9.43;3.60;;;;;;;19.15;91.87;100528.28;1733677;80;21036;-58
2021/06/08 18:32:42;;;;;;;6.00;2.92;;;;;;;19.11;91.35;100528.11;1715993;82;21453;-59
2021/06/08 18:35:10;;;;;;;3.98;2.90;;;;;;;19.10;90.98;100527.73;1705911;83;20894;-59
2021/06/08 18:37:36;;;;;;;4.37;2.77;;;;;;;19.11;88.91;100529.47;1733683;81;21850;-60
2021/06/08 18:40:04;;;;;;;5.30;2.85;;;;;;;19.15;88.28;100532.36;1733145;81;21074;-59
2021/06/08 18:42:31;;;;;;;4.72;2.83;;;;;;;19.18;87.26;100532.13;1733029;81;20956;-59
2021/06/08 18:44:59;;;;;;;5.60;2.92;;;;;;;19.23;86.47;100537.70;1732285;81;21003;-58
2021/06/08 18:47:25;;;;;;;8.05;3.05;;;;;;;19.30;83.96;100536.24;1698744;83;21402;-59
2021/06/08 18:49:54;;;;;;;5.33;2.95;;;;;;;19.44;82.87;100536.08;1732955;81;21854;-60
2021/06/08 18:52:21;;;;;;;5.95;3.30;;;;;;;19.52;82.92;100531.89;1733178;82;21711;-60
2021/06/08 18:54:48;;;;;;;6.00;3.83;;;;;;;19.53;82.86;100533.62;1722875;81;21527;-60
2021/06/08 18:57:14;;;;;;;7.05;3.65;;;;;;;19.54;83.90;100532.16;1731647;82;20967;-59
2021/06/08 18:59:41;;;;;;;7.83;3.92;;;;;;;19.54;85.80;100531.28;1725736;81;21544;-60
2021/06/08 19:02:08;;;;;;;9.83;3.52;;;;;;;19.50;87.50;100522.99;1724428;81;59758;-59
2021/06/08 19:04:35;;;;;;;7.15;4.00;;;;;;;19.44;88.70;100530.64;1727629;81;21435;-59
2021/06/08 19:07:02;;;;;;;5.22;4.25;;;;;;;19.40;89.68;100523.70;1724912;82;21100;-59
2021/06/08 19:09:29;;;;;;;10.80;4.30;;;;;;;19.35;90.24;100524.55;1731767;82;21490;-58
2021/06/08 19:11:56;;;;;;;7.42;4.20;;;;;;;19.30;90.80;100524.02;1729629;81;20952;-58
2021/06/08 19:14:23;;;;;;;8.50;4.67;;;;;;;19.26;91.55;100515.24;1725666;80;21949;-60
2021/06/08 19:16:49;;;;;;;10.58;4.45;;;;;;;19.21;92.35;100524.21;1728185;81;20992;-58
2021/06/08 19:19:16;;;;;;;6.65;3.58;;;;;;;19.16;92.61;100518.27;1732757;82;20989;-58
2021/06/08 19:21:43;;;;;;;6.72;3.83;;;;;;;19.12;92.54;100519.48;1735519;82;21017;-59
2021/06/08 19:24:09;;;;;;;8.08;3.50;;;;;;;19.06;92.30;100519.44;1737844;81;20997;-59
2021/06/08 19:26:40;;;;;;;7.62;3.92;;;;;;;18.99;91.55;100516.81;1731651;81;21554;-60
2021/06/08 19:29:04;;;;;;;6.50;3.60;;;;;;;18.96;91.08;100516.52;1728102;82;20964;-60
2021/06/08 19:31:31;;;;;;;10.28;4.00;;;;;;;18.92;90.97;100515.52;1734563;82;21017;-60
2021/06/08 19:33:58;;;;;;;7.08;3.87;;;;;;;18.89;91.03;100511.16;1731745;82;21044;-59
2021/06/08 19:36:25;;;;;;;9.13;3.77;;;;;;;18.85;91.14;100510.52;1724477;81;21568;-63
2021/06/08 19:38:52;;;;;;;6.83;3.22;;;;;;;18.81;90.88;100509.02;1727391;81;21775;-65
2021/06/08 19:41:19;;;;;;;7.62;3.22;;;;;;;18.78;90.72;100511.95;1734541;82;21127;-64
2021/06/08 19:43:46;;;;;;;5.28;3.08;;;;;;;18.75;89.98;100505.40;1719287;81;21582;-64
2021/06/08 19:46:16;;;;;;;10.53;3.37;;;;;;;18.72;88.69;100504.27;1727423;81;20965;-64
2021/06/08 19:48:42;;;;;;;7.03;3.25;;;;;;;18.75;88.54;100498.61;1721655;81;21119;-64
2021/06/08 19:51:09;;;;;;;3.62;2.20;;;;;;;18.75;87.67;100501.33;1732347;82;21762;-64
2021/06/08 19:53:36;;;;;;;3.77;2.22;;;;;;;18.75;85.88;100500.82;1732974;81;21099;-64
2021/06/08 19:56:04;;;;;;;5.78;2.90;;;;;;;18.81;84.36;100504.09;1734259;81;21118;-64
2021/06/08 19:58:34;;;;;;;8.85;3.10;;;;;;;18.89;82.91;100493.00;1738293;80;21090;-63
2021/06/08 20:01:01;;;;;;;12.18;3.20;;;;;;;18.99;82.59;100492.38;1728301;81;21029;-63
2021/06/08 20:03:29;;;;;;;10.18;3.40;;;;;;;19.03;82.84;100491.15;1734671;82;21949;-64
2021/06/08 20:05:56;;;;;;;9.25;3.98;;;;;;;19.01;83.23;100490.41;1723759;82;21123;-65
2021/06/08 20:08:22;;;;;;;11.05;4.15;;;;;;;18.97;83.91;100484.80;1729056;82;21076;-64
2021/06/08 20:10:51;;;;;;;8.83;4.17;;;;;;;18.92;85.10;100487.84;1727181;82;21080;-64
2021/06/08 20:13:19;;;;;;;7.62;3.85;;;;;;;18.87;85.76;100488.18;1736135;82;20957;-65
2021/06/08 20:15:46;;;;;;;8.15;3.58;;;;;;;18.81;86.39;100485.92;1730598;82;21717;-64
2021/06/08 20:18:12;;;;;;;12.60;3.80;;;;;;;18.77;86.63;100480.35;1733685;82;21099;-64
2021/06/08 20:20:39;;;;;;;10.63;3.47;;;;;;;18.74;86.90;100480.59;1741246;82;21092;-64
2021/06/08 20:23:06;;;;;;;6.08;3.50;;;;;;;18.71;87.03;100478.10;1717341;82;21321;-64
2021/06/08 20:25:33;;;;;;;10.63;3.52;;;;;;;18.67;86.94;100480.64;1723604;82;21147;-64
2021/06/08 20:27:59;;;;;;;6.62;3.17;;;;;;;18.65;85.78;100475.81;1726760;82;22131;-63
2021/06/08 20:30:26;;;;;;;9.85;3.70;;;;;;;18.68;84.84;100483.73;1735646;82;21052;-63
2021/06/08 20:32:52;;;;;;;7.05;3.20;;;;;;;18.72;84.53;100474.41;1726834;82;21867;-63
2021/06/08 20:35:19;;;;;;;6.33;3.62;;;;;;;18.71;84.54;100480.81;1732539;82;20990;-59
2021/06/08 20:37:46;;;;;;;11.95;2.95;;;;;;;18.69;84.45;100474.13;1723696;81;20980;-59
2021/06/08 20:40:15;;;;;;;13.45;3.62;;;;;;;18.68;84.62;100467.44;1692662;83;21086;-59
2021/06/08 20:42:42;;;;;;;8.25;3.37;;;;;;;18.68;85.01;100468.80;1696718;82;21027;-59
2021/06/08 20:45:10;;;;;;;12.03;3.55;;;;;;;18.67;85.47;100468.42;1694069;82;21040;-59
2021/06/08 20:47:40;;;;;;;11.03;3.58;;;;;;;18.65;85.57;100475.81;1694517;83;21482;-59
2021/06/08 20:50:09;;;;;;;8.68;3.10;;;;;;;18.61;85.21;100473.33;1692270;83;20900;-59
2021/06/08 20:52:36;;;;;;;8.28;3.55;;;;;;;18.59;84.48;100469.02;1695826;83;21583;-59
2021/06/08 20:55:04;;;;;;;10.35;3.67;;;;;;;18.58;84.24;100470.84;1696544;82;20945;-59
2021/06/08 20:57:30;;;;;;;12.03;3.87;;;;;;;18.59;84.40;100467.66;1697295;83;21573;-59
2021/06/08 20:59:56;;;;;;;9.83;3.75;;;;;;;18.57;85.54;100473.19;1687230;83;20916;-59
2021/06/08 21:02:23;;;;;;;13.15;3.77;;;;;;;18.55;85.88;100462.94;1696159;83;29276;-59
2021/06/08 21:04:51;;;;;;;11.60;4.10;;;;;;;18.53;86.46;100454.03;1679778;83;21482;-59
2021/06/08 21:07:20;;;;;;;8.23;3.67;;;;;;;18.49;86.75;100455.24;1689388;82;21004;-58
2021/06/08 21:09:47;;;;;;;10.68;3.30;;;;;;;18.44;86.81;100455.58;1687864;83;21415;-58
2021/06/08 21:12:14;;;;;;;11.50;3.47;;;;;;;18.39;86.73;100460.48;1695942;82;21011;-58
2021/06/08 21:14:41;;;;;;;8.73;3.98;;;;;;;18.36;86.71;100458.47;1698473;83;21003;-59
2021/06/08 21:17:07;;;;;;;10.03;3.72;;;;;;;18.33;86.79;100455.00;1696076;83;21541;-60
2021/06/08 21:19:34;;;;;;;6.90;3.35;;;;;;;18.29;87.00;100452.14;1698412;82;21639;-58
2021/06/08 21:22:00;;;;;;;6.60;3.35;;;;;;;18.24;87.03;100457.03;1690954;82;21520;-58
2021/06/08 21:24:31;;;;;;;5.55;3.10;;;;;;;18.21;86.99;100457.73;1693848;82;21453;-59
2021/06/08 21:26:55;;;;;;;6.53;2.98;;;;;;;18.18;87.24;100452.91;1686823;82;21096;-59
2021/06/08 21:29:22;;;;;;;5.25;3.20;;;;;;;18.16;87.14;100448.09;1689360;84;21765;-59
2021/06/08 21:31:48;;;;;;;7.72;3.37;;;;;;;18.13;87.19;100443.36;1691163;82;20929;-58
2021/06/08 21:34:15;;;;;;;8.30;3.20;;;;;;;18.11;87.16;100448.03;1692641;83;20930;-59
2021/06/08 21:36:41;;;;;;;7.20;3.02;;;;;;;18.09;87.27;100448.63;1693220;83;21467;-59
2021/06/08 21:39:08;;;;;;;9.25;3.67;;;;;;;18.08;87.62;100445.55;1713654;82;21131;-59
2021/06/08 21:41:34;;;;;;;5.80;3.15;;;;;;;18.03;88.14;100448.58;1726137;82;21066;-59
2021/06/08 21:44:01;;;;;;;8.38;3.20;;;;;;;17.98;88.43;100448.86;1729332;82;21669;-64
2021/06/08 21:46:28;;;;;;;10.20;3.00;;;;;;;17.93;88.50;100449.69;1733832;82;21241;-64
2021/06/08 21:48:55;;;;;;;9.55;2.90;;;;;;;17.89;88.50;100438.68;1732663;82;21083;-59
2021/06/08 21:51:21;;;;;;;11.00;3.50;;;;;;;17.87;88.80;100447.41;1726766;82;21103;-60
2021/06/08 21:53:48;;;;;;;8.98;3.15;;;;;;;17.81;88.90;100441.93;1731366;81;21202;-60
2021/06/08 21:56:14;;;;;;;12.43;2.90;;;;;;;17.80;88.85;100452.91;1737361;81;21328;-59
2021/06/08 21:58:41;;;;;;;12.03;2.90;;;;;;;17.79;88.64;100444.36;1735419;82;21569;-59
2021/06/08 22:01:07;;;;;;;8.55;2.75;;;;;;;17.79;88.42;100449.78;1720789;82;21479;-60
2021/06/08 22:03:33;;;;;;;8.20;2.80;;;;;;;17.79;88.11;100453.38;1726128;80;21020;-60
2021/06/08 22:06:01;;;;;;;7.92;2.90;;;;;;;17.82;87.91;100459.08;1730571;82;21086;-58
2021/06/08 22:08:27;;;;;;;5.30;3.40;;;;;;;17.82;87.24;100453.66;1730608;81;21122;-58
2021/06/08 22:10:54;;;;;;;4.85;3.00;;;;;;;17.83;86.75;100445.91;1736641;81;21102;-58
2021/06/08 22:13:22;;;;;;;8.95;3.30;;;;;;;17.84;86.59;100440.86;1729711;81;20997;-59
2021/06/08 22:15:49;;;;;;;8.98;3.70;;;;;;;17.85;86.37;100453.44;1731638;82;21037;-59
2021/06/08 22:18:19;;;;;;;10.25;3.80;;;;;;;17.86;86.10;100455.17;1727065;82;21074;-58
2021/06/08 22:20:43;;;;;;;7.65;4.08;;;;;;;17.89;85.86;100450.88;1722980;81;20907;-58
2021/06/08 22:23:10;;;;;;;7.25;3.17;;;;;;;17.90;85.70;100443.13;1734671;82;21540;-59
2021/06/08 22:25:36;;;;;;;5.60;3.52;;;;;;;17.87;86.19;100450.98;1732383;80;21218;-58
2021/06/08 22:28:03;;;;;;;6.92;3.40;;;;;;;17.82;86.78;100449.59;1730968;80;21466;-57
2021/06/08 22:30:30;;;;;;;5.75;3.67;;;;;;;17.76;87.73;100461.22;1731706;81;21076;-58
2021/06/08 22:32:57;;;;;;;3.98;3.00;;;;;;;17.69;88.55;100459.08;1736891;82;21455;-58
2021/06/08 22:35:26;;;;;;;9.20;3.08;;;;;;;17.64;89.29;100458.03;1737055;81;21458;-58
2021/06/08 22:37:53;;;;;;;5.60;3.12;;;;;;;17.59;89.77;100453.42;1724242;82;21507;-58
2021/06/08 22:40:21;;;;;;;7.37;4.00;;;;;;;17.55;90.13;100451.88;1736848;81;21083;-58
2021/06/08 22:42:48;;;;;;;5.87;3.80;;;;;;;17.55;90.40;100453.23;1737696;82;21755;-59
2021/06/08 22:45:15;;;;;;;5.20;3.10;;;;;;;17.53;90.54;100444.34;1729651;82;21052;-62
2021/06/08 22:47:41;;;;;;;12.95;3.47;;;;;;;17.52;90.58;100443.97;1743902;80;22326;-61
2021/06/08 22:50:09;;;;;;;10.93;4.70;;;;;;;17.51;90.62;100447.65;1696711;83;21120;-62
2021/06/08 22:52:36;;;;;;;7.12;3.62;;;;;;;17.49;90.67;100445.06;1695258;84;21068;-57
2021/06/08 22:55:11;;;;;;;7.62;4.00;;;;;;;17.49;90.79;100446.42;1693834;84;21005;-58
2021/06/08 22:57:37;;;;;;;;;;;;;;;17.49;91.12;100441.47;1697561;84;21033;-58
2021/06/08 23:00:06;;;;;;;9.00;3.98;;;;;;;17.47;91.38;100441.09;1690210;84;20120;-57
2021/06/08 23:02:33;;;;;;;6.45;3.80;;;;;;;17.46;91.50;100445.25;1642716;85;31086;-58
2021/06/08 23:05:00;;;;;;;9.43;4.33;;;;;;;17.43;91.77;100442.28;1664154;85;21040;-58
2021/06/08 23:07:26;;;;;;;7.67;4.20;;;;;;;17.41;92.04;100434.75;1703336;82;21750;-58
2021/06/08 23:09:53;;;;;;;7.35;4.20;;;;;;;17.40;92.33;100427.59;1710059;83;21335;-58
2021/06/08 23:12:21;;;;;;;6.37;4.22;;;;;;;17.39;92.53;100424.98;1708569;82;21318;-58